Chinese Camp, CA (95309)

1:31 PM PDT on September 20, 2014 (GMT -0700)
GREEN SPRINGS | Change Station
CLOSE
Current Station
Personal Weather Station
Location: Jamestown, CA
Elevation: 1105 ft
Nearby Weather Stations

Elev 1105 ft 37.83 °N, 120.50 °W | Updated 14 minutes ago

Clear
Clear
83.0 °F
Feels Like 81 °F
N
10.0
Wind Variable Wind from West

Today
High -- | Low -- °F
--% Chance of Precip.
Yesterday
High -- | Low -- °F
Precip. -- in
6:47 AM 7:01 PM
Waning Crescent, 10% visible
Pressure 29.93 in
Visibility 10.0 miles
Clouds Clear
Heat Index 81 °F
Dew Point 50 °F
Humidity 31%
Rainfall -999.00 in
Snow Depth 0 in , 0 in , 0 in
UV 8 out of 12
Pollen 5.60 out of 12
Ozone Good
Flu Activity Not available.
METAR KO22 202015Z AUTO 24003KT 10SM CLR 29/08 A2993 RMK AO1

More Conditions Fewer Conditions

Pressure 29.93 in
Visibility 10.0 miles
Clouds Clear
Heat Index 81 °F
Dew Point 50 °F
Humidity 31%
Rainfall -999.00 in
Snow Depth 0 in , 0 in , 0 in
UV 8 out of 12
Pollen 5.60 out of 12
Ozone Good
Flu Activity Not available.
METAR KO22 202015Z AUTO 24003KT 10SM CLR 29/08 A2993 RMK AO1

More Conditions Fewer Conditions

10-Day Weather Forecast

Almanac

Astronomy

Sep. 20, 2014 Rise Set
Actual Time 6:47 AM PDT 7:01 PM PDT
Civil Twilight 6:21 AM PDT 7:27 PM PDT
Nautical Twilight 5:50 AM PDT 7:58 PM PDT
Astronomical Twilight 5:19 AM PDT 8:29 PM PDT
Moon 3:34 AM PDT 5:05 PM PDT
Length of Visible Light 13h 06m
Length of Day
12h 13m
Tomorrow will be 2m 25s shorter.
Waning Crescent, 10% of the Moon is Illuminated
Today
Waning Crescent
Sep 24
New
Oct 1
First Quarter
Oct 8
Full
Oct 15
Last Quarter

Today's Extremes

State Highs State Lows

Community

WunderPhotos

Upload Photos

1,754,937 photos uploaded!

WunderBlogs® & News

Nearby

Air Quality

  Air Quality AQ Index Pollutant
Yesterday Good
OZONE
Current Good
OZONE
Saturday Good
OZONE
Sunday Good
OZONE
Monday Good
OZONE
Tuesday Moderate
OZONE
Wednesday Good
OZONE
Thursday Good
OZONE

Snow Depth

Station Depth Elevation
Adin Mountain 0 in 6200 ft
Monitor Pass 0 in 8350 ft
Leavitt Meadows 0 in 7200 ft
CSS Lab 0 in 6900 ft

Earthquake Activity

City Distance Mag. Time & Date
Livermore, California 71 miles 2.6 3:37 AM PDT
2014-09-19
Corcoran, California 131 miles 2.9 3:59 PM PDT
2014-09-18
Minimum magnitude displayed is 2.5.

Coastal Water Temperatures

Place Temperature
No Stations Reporting

Nearby Weather Stations